sensor_id;sensor_type;location;lat;lon;timestamp;pressure;altitude;pressure_sealevel;temperature;humidity
19748;BME280;10032;51.386;12.516;2022-12-10T00:00:33;99319.22;;;2.00;100.00
19748;BME280;10032;51.386;12.516;2022-12-10T00:02:58;99321.31;;;1.98;100.00
19748;BME280;10032;51.386;12.516;2022-12-10T00:05:24;99317.41;;;1.94;100.00
19748;BME280;10032;51.386;12.516;2022-12-10T00:07:49;99319.06;;;1.89;100.00
19748;BME280;10032;51.386;12.516;2022-12-10T00:10:15;99317.28;;;1.83;100.00
19748;BME280;10032;51.386;12.516;2022-12-10T00:12:40;99323.44;;;1.83;100.00
19748;BME280;10032;51.386;12.516;2022-12-10T00:15:06;99332.50;;;1.82;100.00
19748;BME280;10032;51.386;12.516;2022-12-10T00:17:31;99318.09;;;1.83;100.00
19748;BME280;10032;51.386;12.516;2022-12-10T00:19:57;99324.06;;;1.79;100.00
19748;BME280;10032;51.386;12.516;2022-12-10T00:22:22;99322.88;;;1.75;100.00
19748;BME280;10032;51.386;12.516;2022-12-10T00:24:47;99314.41;;;1.78;100.00
19748;BME280;10032;51.386;12.516;2022-12-10T00:27:13;99314.00;;;1.81;100.00
19748;BME280;10032;51.386;12.516;2022-12-10T00:29:39;99313.97;;;1.87;100.00
19748;BME280;10032;51.386;12.516;2022-12-10T00:32:04;99320.78;;;1.83;100.00
19748;BME280;10032;51.386;12.516;2022-12-10T00:34:31;99325.47;;;1.81;100.00
19748;BME280;10032;51.386;12.516;2022-12-10T00:36:57;99323.06;;;1.80;100.00
19748;BME280;10032;51.386;12.516;2022-12-10T00:39:22;99324.72;;;1.74;100.00
19748;BME280;10032;51.386;12.516;2022-12-10T00:41:48;99320.63;;;1.72;100.00
19748;BME280;10032;51.386;12.516;2022-12-10T00:44:14;99327.66;;;1.66;100.00
19748;BME280;10032;51.386;12.516;2022-12-10T00:46:39;99326.41;;;1.69;100.00
19748;BME280;10032;51.386;12.516;2022-12-10T00:49:05;99326.34;;;1.75;100.00
19748;BME280;10032;51.386;12.516;2022-12-10T00:51:30;99324.88;;;1.79;100.00
19748;BME280;10032;51.386;12.516;2022-12-10T00:53:57;99330.66;;;1.76;100.00
19748;BME280;10032;51.386;12.516;2022-12-10T00:56:29;99328.84;;;1.70;100.00
19748;BME280;10032;51.386;12.516;2022-12-10T00:58:55;99335.00;;;1.71;100.00
19748;BME280;10032;51.386;12.516;2022-12-10T01:01:27;99329.47;;;1.66;100.00
19748;BME280;10032;51.386;12.516;2022-12-10T01:03:55;99330.91;;;1.68;100.00
19748;BME280;10032;51.386;12.516;2022-12-10T01:06:46;99340.53;;;1.69;100.00
19748;BME280;10032;51.386;12.516;2022-12-10T01:09:14;99338.06;;;1.74;100.00
19748;BME280;10032;51.386;12.516;2022-12-10T01:11:41;99346.03;;;1.81;100.00
19748;BME280;10032;51.386;12.516;2022-12-10T01:14:09;99341.94;;;1.78;100.00
19748;BME280;10032;51.386;12.516;2022-12-10T01:16:36;99343.59;;;1.79;100.00
19748;BME280;10032;51.386;12.516;2022-12-10T01:19:02;99341.56;;;1.75;100.00
19748;BME280;10032;51.386;12.516;2022-12-10T01:21:28;99347.53;;;1.70;100.00
19748;BME280;10032;51.386;12.516;2022-12-10T01:23:55;99340.53;;;1.69;100.00
19748;BME280;10032;51.386;12.516;2022-12-10T01:26:24;99341.97;;;1.72;100.00
19748;BME280;10032;51.386;12.516;2022-12-10T01:28:51;99334.97;;;1.77;100.00
19748;BME280;10032;51.386;12.516;2022-12-10T01:31:25;99348.09;;;1.79;100.00
19748;BME280;10032;51.386;12.516;2022-12-10T01:33:51;99343.41;;;1.74;100.00
19748;BME280;10032;51.386;12.516;2022-12-10T01:36:19;99341.97;;;1.72;100.00
19748;BME280;10032;51.386;12.516;2022-12-10T01:38:45;99345.47;;;1.72;100.00
19748;BME280;10032;51.386;12.516;2022-12-10T01:41:17;99344.44;;;1.73;100.00
19748;BME280;10032;51.386;12.516;2022-12-10T01:44:53;99341.00;;;1.66;100.00
19748;BME280;10032;51.386;12.516;2022-12-10T01:46:51;99346.06;;;1.74;100.00
19748;BME280;10032;51.386;12.516;2022-12-10T01:49:25;99339.06;;;1.80;100.00
19748;BME280;10032;51.386;12.516;2022-12-10T01:51:55;99344.78;;;1.83;100.00
19748;BME280;10032;51.386;12.516;2022-12-10T01:54:27;99345.03;;;1.75;100.00
19748;BME280;10032;51.386;12.516;2022-12-10T01:57:08;99347.50;;;1.77;100.00
19748;BME280;10032;51.386;12.516;2022-12-10T01:59:35;99347.09;;;1.80;100.00
19748;BME280;10032;51.386;12.516;2022-12-10T02:02:19;99344.44;;;1.73;100.00
19748;BME280;10032;51.386;12.516;2022-12-10T02:05:26;99343.59;;;1.79;100.00
19748;BME280;10032;51.386;12.516;2022-12-10T02:08:08;99348.31;;;1.77;100.00
19748;BME280;10032;51.386;12.516;2022-12-10T02:13:34;99346.84;;;1.81;100.00
19748;BME280;10032;51.386;12.516;2022-12-10T02:16:19;99355.88;;;1.87;100.00
19748;BME280;10032;51.386;12.516;2022-12-10T02:18:53;99341.88;;;1.91;100.00
19748;BME280;10032;51.386;12.516;2022-12-10T02:21:31;99347.19;;;1.91;100.00
19748;BME280;10032;51.386;12.516;2022-12-10T02:24:01;99343.94;;;1.89;100.00
19748;BME280;10032;51.386;12.516;2022-12-10T02:29:20;99339.47;;;1.83;100.00
19748;BME280;10032;51.386;12.516;2022-12-10T02:31:49;99342.13;;;1.83;100.00
19748;BME280;10032;51.386;12.516;2022-12-10T02:34:18;99339.00;;;1.86;100.00
19748;BME280;10032;51.386;12.516;2022-12-10T02:36:46;99346.00;;;1.87;100.00
19748;BME280;10032;51.386;12.516;2022-12-10T02:39:15;99343.94;;;1.89;100.00
19748;BME280;10032;51.386;12.516;2022-12-10T02:41:46;99340.44;;;1.89;100.00
19748;BME280;10032;51.386;12.516;2022-12-10T02:44:16;99348.03;;;1.92;100.00
19748;BME280;10032;51.386;12.516;2022-12-10T02:46:44;99353.59;;;1.90;100.00
19748;BME280;10032;51.386;12.516;2022-12-10T02:49:13;99347.66;;;1.88;100.00
19748;BME280;10032;51.386;12.516;2022-12-10T02:51:40;99347.03;;;1.86;100.00
19748;BME280;10032;51.386;12.516;2022-12-10T02:56:58;99350.94;;;1.84;100.00
19748;BME280;10032;51.386;12.516;2022-12-10T02:59:33;99351.78;;;1.84;100.00
19748;BME280;10032;51.386;12.516;2022-12-10T03:02:07;99350.94;;;1.84;100.00
19748;BME280;10032;51.386;12.516;2022-12-10T03:04:47;99351.38;;;1.81;100.00
19748;BME280;10032;51.386;12.516;2022-12-10T03:07:33;99342.53;;;1.80;100.00
19748;BME280;10032;51.386;12.516;2022-12-10T03:10:10;99353.22;;;1.80;100.00
19748;BME280;10032;51.386;12.516;2022-12-10T03:12:42;99354.44;;;1.84;100.00
19748;BME280;10032;51.386;12.516;2022-12-10T03:15:11;99359.19;;;1.82;100.00
19748;BME280;10032;51.386;12.516;2022-12-10T03:17:39;99357.53;;;1.81;100.00
19748;BME280;10032;51.386;12.516;2022-12-10T03:20:09;99364.28;;;1.84;100.00
19748;BME280;10032;51.386;12.516;2022-12-10T03:22:38;99361.22;;;1.87;100.00
19748;BME280;10032;51.386;12.516;2022-12-10T03:25:06;99361.22;;;1.80;100.00
19748;BME280;10032;51.386;12.516;2022-12-10T03:27:32;99359.00;;;1.77;100.00
19748;BME280;10032;51.386;12.516;2022-12-10T03:29:59;99361.69;;;1.77;100.00
19748;BME280;10032;51.386;12.516;2022-12-10T03:32:27;99360.00;;;1.76;100.00
19748;BME280;10032;51.386;12.516;2022-12-10T03:34:54;99353.69;;;1.71;100.00
19748;BME280;10032;51.386;12.516;2022-12-10T03:37:23;99357.16;;;1.71;100.00
19748;BME280;10032;51.386;12.516;2022-12-10T03:39:49;99351.03;;;1.71;100.00
19748;BME280;10032;51.386;12.516;2022-12-10T03:42:15;99357.16;;;1.71;100.00
19748;BME280;10032;51.386;12.516;2022-12-10T03:44:41;99362.09;;;1.68;100.00
19748;BME280;10032;51.386;12.516;2022-12-10T03:47:09;99353.91;;;1.69;100.00
19748;BME280;10032;51.386;12.516;2022-12-10T03:49:36;99352.00;;;1.76;100.00
19748;BME280;10032;51.386;12.516;2022-12-10T03:52:02;99350.38;;;1.75;100.00
19748;BME280;10032;51.386;12.516;2022-12-10T03:54:28;99351.59;;;1.79;100.00
19748;BME280;10032;51.386;12.516;2022-12-10T03:56:53;99353.22;;;1.80;100.00
19748;BME280;10032;51.386;12.516;2022-12-10T03:59:19;99352.19;;;1.81;100.00
19748;BME280;10032;51.386;12.516;2022-12-10T04:01:44;99346.06;;;1.74;100.00
19748;BME280;10032;51.386;12.516;2022-12-10T04:04:10;99352.84;;;1.70;100.00
19748;BME280;10032;51.386;12.516;2022-12-10T04:06:38;99353.25;;;1.74;100.00
19748;BME280;10032;51.386;12.516;2022-12-10T04:09:04;99357.97;;;1.78;100.00
19748;BME280;10032;51.386;12.516;2022-12-10T04:11:29;99354.25;;;1.79;100.00
19748;BME280;10032;51.386;12.516;2022-12-10T04:13:54;99351.59;;;1.79;100.00
19748;BME280;10032;51.386;12.516;2022-12-10T04:16:39;99357.97;;;1.78;100.00
19748;BME280;10032;51.386;12.516;2022-12-10T04:19:10;99359.22;;;1.76;100.00
19748;BME280;10032;51.386;12.516;2022-12-10T04:21:37;99351.22;;;1.69;100.00
19748;BME280;10032;51.386;12.516;2022-12-10T04:24:26;99363.78;;;1.69;100.00
19748;BME280;10032;51.386;12.516;2022-12-10T04:27:20;99361.91;;;1.63;100.00
19748;BME280;10032;51.386;12.516;2022-12-10T04:29:45;99358.84;;;1.66;100.00
19748;BME280;10032;51.386;12.516;2022-12-10T04:32:11;99359.25;;;1.63;100.00
19748;BME280;10032;51.386;12.516;2022-12-10T04:34:36;99348.16;;;1.66;100.00
19748;BME280;10032;51.386;12.516;2022-12-10T04:37:03;99357.63;;;1.62;100.00
19748;BME280;10032;51.386;12.516;2022-12-10T04:39:29;99344.28;;;1.55;100.00
19748;BME280;10032;51.386;12.516;2022-12-10T04:41:55;99344.94;;;1.51;100.00
19748;BME280;10032;51.386;12.516;2022-12-10T04:44:20;99347.78;;;1.56;100.00
19748;BME280;10032;51.386;12.516;2022-12-10T04:46:46;99345.13;;;1.56;100.00
19748;BME280;10032;51.386;12.516;2022-12-10T04:49:13;99346.16;;;1.55;100.00
19748;BME280;10032;51.386;12.516;2022-12-10T04:51:39;99339.59;;;1.57;100.00
19748;BME280;10032;51.386;12.516;2022-12-10T04:54:05;99342.28;;;1.51;100.00
19748;BME280;10032;51.386;12.516;2022-12-10T04:56:31;99339.41;;;1.52;100.00
19748;BME280;10032;51.386;12.516;2022-12-10T04:58:57;99341.88;;;1.47;100.00
19748;BME280;10032;51.386;12.516;2022-12-10T05:01:23;99349.88;;;1.47;100.00
19748;BME280;10032;51.386;12.516;2022-12-10T05:03:48;99345.38;;;1.48;100.00
19748;BME280;10032;51.386;12.516;2022-12-10T05:06:15;99349.25;;;1.52;100.00
19748;BME280;10032;51.386;12.516;2022-12-10T05:08:42;99341.22;;;1.58;100.00
19748;BME280;10032;51.386;12.516;2022-12-10T05:11:11;99346.94;;;1.62;100.00
19748;BME280;10032;51.386;12.516;2022-12-10T05:13:37;99350.06;;;1.59;100.00
19748;BME280;10032;51.386;12.516;2022-12-10T05:16:05;99354.34;;;1.60;100.00
19748;BME280;10032;51.386;12.516;2022-12-10T05:18:31;99342.88;;;1.53;100.00
19748;BME280;10032;51.386;12.516;2022-12-10T05:21:00;99351.72;;;1.53;100.00
19748;BME280;10032;51.386;12.516;2022-12-10T05:23:26;99350.06;;;1.52;100.00
19748;BME280;10032;51.386;12.516;2022-12-10T05:28:28;99348.19;;;1.53;100.00
19748;BME280;10032;51.386;12.516;2022-12-10T05:30:54;99349.03;;;1.53;100.00
19748;BME280;10032;51.386;12.516;2022-12-10T05:33:19;99348.00;;;1.54;100.00
19748;BME280;10032;51.386;12.516;2022-12-10T05:35:59;99360.56;;;1.47;100.00
19748;BME280;10032;51.386;12.516;2022-12-10T05:38:26;99359.34;;;1.43;100.00
19748;BME280;10032;51.386;12.516;2022-12-10T05:40:52;99368.56;;;1.41;100.00
19748;BME280;10032;51.386;12.516;2022-12-10T05:43:18;99366.34;;;1.38;100.00
19748;BME280;10032;51.386;12.516;2022-12-10T05:45:43;99372.50;;;1.38;100.00
19748;BME280;10032;51.386;12.516;2022-12-10T05:48:14;99373.31;;;1.32;100.00
19748;BME280;10032;51.386;12.516;2022-12-10T05:50:40;99377.22;;;1.36;100.00
19748;BME280;10032;51.386;12.516;2022-12-10T05:53:06;99377.03;;;1.38;100.00
19748;BME280;10032;51.386;12.516;2022-12-10T05:55:32;99372.91;;;1.35;100.00
19748;BME280;10032;51.386;12.516;2022-12-10T05:57:59;99374.97;;;1.33;100.00
19748;BME280;10032;51.386;12.516;2022-12-10T06:00:26;99373.72;;;1.36;100.00
19748;BME280;10032;51.386;12.516;2022-12-10T06:02:51;99376.19;;;1.37;100.00
19748;BME280;10032;51.386;12.516;2022-12-10T06:05:17;99373.72;;;1.36;100.00
19748;BME280;10032;51.386;12.516;2022-12-10T06:07:43;99370.66;;;1.32;100.00
19748;BME280;10032;51.386;12.516;2022-12-10T06:10:09;99376.84;;;1.26;100.00
19748;BME280;10032;51.386;12.516;2022-12-10T06:12:36;99379.31;;;1.21;100.00
19748;BME280;10032;51.386;12.516;2022-12-10T06:15:01;99375.81;;;1.21;100.00
19748;BME280;10032;51.386;12.516;2022-12-10T06:17:27;99377.25;;;1.23;100.00
19748;BME280;10032;51.386;12.516;2022-12-10T06:19:52;99381.97;;;1.21;100.00
19748;BME280;10032;51.386;12.516;2022-12-10T06:22:17;99378.91;;;1.11;100.00
19748;BME280;10032;51.386;12.516;2022-12-10T06:24:43;99388.75;;;1.17;100.00
19748;BME280;10032;51.386;12.516;2022-12-10T06:27:08;99386.28;;;1.22;100.00
19748;BME280;10032;51.386;12.516;2022-12-10T06:29:35;99392.25;;;1.18;100.00
19748;BME280;10032;51.386;12.516;2022-12-10T06:32:01;99392.25;;;1.24;100.00
19748;BME280;10032;51.386;12.516;2022-12-10T06:34:26;99386.91;;;1.18;100.00
19748;BME280;10032;51.386;12.516;2022-12-10T06:36:51;99392.03;;;1.19;100.00
19748;BME280;10032;51.386;12.516;2022-12-10T06:39:17;99392.84;;;1.20;100.00
19748;BME280;10032;51.386;12.516;2022-12-10T06:41:42;99395.72;;;1.18;100.00
19748;BME280;10032;51.386;12.516;2022-12-10T06:44:09;99396.75;;;1.24;100.00
19748;BME280;10032;51.386;12.516;2022-12-10T06:46:35;99395.91;;;1.23;100.00
19748;BME280;10032;51.386;12.516;2022-12-10T06:49:02;99405.78;;;1.23;100.00
19748;BME280;10032;51.386;12.516;2022-12-10T06:51:27;99404.75;;;1.17;100.00
19748;BME280;10032;51.386;12.516;2022-12-10T06:53:53;99404.75;;;1.17;100.00
19748;BME280;10032;51.386;12.516;2022-12-10T06:56:19;99406.41;;;1.12;100.00
19748;BME280;10032;51.386;12.516;2022-12-10T06:58:45;99414.03;;;1.08;100.00
19748;BME280;10032;51.386;12.516;2022-12-10T07:01:11;99418.31;;;1.09;100.00
19748;BME280;10032;51.386;12.516;2022-12-10T07:03:37;99421.00;;;1.09;100.00
19748;BME280;10032;51.386;12.516;2022-12-10T07:06:08;99423.44;;;1.04;100.00
19748;BME280;10032;51.386;12.516;2022-12-10T07:08:34;99435.56;;;1.07;100.00
19748;BME280;10032;51.386;12.516;2022-12-10T07:11:03;99425.91;;;1.06;100.00
19748;BME280;10032;51.386;12.516;2022-12-10T07:13:28;99427.34;;;1.08;100.00
19748;BME280;10032;51.386;12.516;2022-12-10T07:15:54;99430.81;;;1.02;100.00
19748;BME280;10032;51.386;12.516;2022-12-10T07:18:19;99424.28;;;0.98;100.00
19748;BME280;10032;51.386;12.516;2022-12-10T07:20:45;99428.38;;;0.94;100.00
19748;BME280;10032;51.386;12.516;2022-12-10T07:23:10;99430.44;;;0.92;100.00
19748;BME280;10032;51.386;12.516;2022-12-10T07:25:35;99431.03;;;0.94;100.00
19748;BME280;10032;51.386;12.516;2022-12-10T07:28:01;99431.25;;;0.99;100.00
19748;BME280;10032;51.386;12.516;2022-12-10T07:30:26;99432.88;;;1.00;100.00
19748;BME280;10032;51.386;12.516;2022-12-10T07:32:52;99440.69;;;0.95;100.00
19748;BME280;10032;51.386;12.516;2022-12-10T07:35:17;99444.78;;;0.91;100.00
19748;BME280;10032;51.386;12.516;2022-12-10T07:37:42;99430.44;;;0.92;100.00
19748;BME280;10032;51.386;12.516;2022-12-10T07:40:08;99431.25;;;0.99;100.00
19748;BME280;10032;51.386;12.516;2022-12-10T07:42:34;99431.66;;;1.03;100.00
19748;BME280;10032;51.386;12.516;2022-12-10T07:44:59;99440.69;;;1.08;100.00
19748;BME280;10032;51.386;12.516;2022-12-10T07:47:25;99443.53;;;1.00;100.00
19748;BME280;10032;51.386;12.516;2022-12-10T07:49:50;99443.53;;;1.00;100.00
19748;BME280;10032;51.386;12.516;2022-12-10T07:52:16;99453.16;;;0.95;100.00
19748;BME280;10032;51.386;12.516;2022-12-10T07:54:41;99450.94;;;0.98;100.00
19748;BME280;10032;51.386;12.516;2022-12-10T07:57:06;99452.56;;;0.99;100.00
19748;BME280;10032;51.386;12.516;2022-12-10T07:59:32;99448.03;;;1.00;100.00
19748;BME280;10032;51.386;12.516;2022-12-10T08:01:57;99451.75;;;1.05;100.00
19748;BME280;10032;51.386;12.516;2022-12-10T08:04:23;99456.25;;;1.11;100.00
19748;BME280;10032;51.386;12.516;2022-12-10T08:06:48;99449.28;;;1.04;100.00
19748;BME280;10032;51.386;12.516;2022-12-10T08:09:14;99455.03;;;1.07;100.00
19748;BME280;10032;51.386;12.516;2022-12-10T08:11:39;99453.59;;;1.05;100.00
19748;BME280;10032;51.386;12.516;2022-12-10T08:14:05;99460.34;;;1.07;100.00
19748;BME280;10032;51.386;12.516;2022-12-10T08:16:30;99457.91;;;1.06;100.00
19748;BME280;10032;51.386;12.516;2022-12-10T08:18:58;99453.38;;;1.13;100.00
19748;BME280;10032;51.386;12.516;2022-12-10T08:21:27;99459.97;;;1.17;100.00
19748;BME280;10032;51.386;12.516;2022-12-10T08:23:54;99465.06;;;1.18;100.00
19748;BME280;10032;51.386;12.516;2022-12-10T08:26:22;99458.28;;;1.22;100.00
19748;BME280;10032;51.386;12.516;2022-12-10T08:28:49;99467.31;;;1.21;100.00
19748;BME280;10032;51.386;12.516;2022-12-10T08:31:16;99465.69;;;1.20;100.00
19748;BME280;10032;51.386;12.516;2022-12-10T08:33:42;99460.38;;;1.27;100.00
19748;BME280;10032;51.386;12.516;2022-12-10T08:36:09;99468.53;;;1.38;100.00
19748;BME280;10032;51.386;12.516;2022-12-10T08:38:35;99466.50;;;1.40;100.00
19748;BME280;10032;51.386;12.516;2022-12-10T08:41:12;99469.16;;;1.40;100.00
19748;BME280;10032;51.386;12.516;2022-12-10T08:43:38;99462.41;;;1.38;100.00
19748;BME280;10032;51.386;12.516;2022-12-10T08:46:04;99474.69;;;1.32;100.00
19748;BME280;10032;51.386;12.516;2022-12-10T08:48:30;99478.41;;;1.31;100.00
19748;BME280;10032;51.386;12.516;2022-12-10T08:50:56;99479.63;;;1.35;100.00
19748;BME280;10032;51.386;12.516;2022-12-10T08:53:21;99482.47;;;1.47;100.00
19748;BME280;10032;51.386;12.516;2022-12-10T08:55:50;99485.97;;;1.47;100.00
19748;BME280;10032;51.386;12.516;2022-12-10T08:58:16;99489.47;;;1.35;100.00
19748;BME280;10032;51.386;12.516;2022-12-10T09:00:41;99488.63;;;1.34;100.00
19748;BME280;10032;51.386;12.516;2022-12-10T09:03:08;99484.53;;;1.38;100.00
19748;BME280;10032;51.386;12.516;2022-12-10T09:05:34;99482.06;;;1.43;100.00
19748;BME280;10032;51.386;12.516;2022-12-10T09:08:00;99481.66;;;1.46;100.00
19748;BME280;10032;51.386;12.516;2022-12-10T09:10:25;99484.53;;;1.45;100.00
19748;BME280;10032;51.386;12.516;2022-12-10T09:12:51;99485.78;;;1.42;100.00
19748;BME280;10032;51.386;12.516;2022-12-10T09:15:16;99489.28;;;1.43;100.00
19748;BME280;10032;51.386;12.516;2022-12-10T09:17:42;99492.53;;;1.45;100.00
19748;BME280;10032;51.386;12.516;2022-12-10T09:20:08;99489.88;;;1.45;100.00
19748;BME280;10032;51.386;12.516;2022-12-10T09:22:33;99489.28;;;1.36;100.00
19748;BME280;10032;51.386;12.516;2022-12-10T09:25:03;99484.97;;;1.35;100.00
19748;BME280;10032;51.386;12.516;2022-12-10T09:27:30;99492.94;;;1.42;100.00
19748;BME280;10032;51.386;12.516;2022-12-10T09:29:55;99494.81;;;1.41;100.00
19748;BME280;10032;51.386;12.516;2022-12-10T09:32:20;99499.13;;;1.42;100.00
19748;BME280;10032;51.386;12.516;2022-12-10T09:34:46;99490.47;;;1.47;100.00
19748;BME280;10032;51.386;12.516;2022-12-10T09:37:11;99491.72;;;1.51;100.00
19748;BME280;10032;51.386;12.516;2022-12-10T09:39:37;99489.03;;;1.51;100.00
19748;BME280;10032;51.386;12.516;2022-12-10T09:47:08;99488.59;;;1.60;100.00
19748;BME280;10032;51.386;12.516;2022-12-10T09:52:13;99485.34;;;1.65;100.00
19748;BME280;10032;51.386;12.516;2022-12-10T09:55:28;99476.94;;;1.61;100.00
19748;BME280;10032;51.386;12.516;2022-12-10T09:57:35;99487.41;;;1.50;100.00
19748;BME280;10032;51.386;12.516;2022-12-10T10:02:36;99479.59;;;1.61;100.00
19748;BME280;10032;51.386;12.516;2022-12-10T10:05:10;99470.13;;;1.65;100.00
19748;BME280;10032;51.386;12.516;2022-12-10T10:07:45;99475.25;;;1.73;100.00
19748;BME280;10032;51.386;12.516;2022-12-10T10:10:21;99481.16;;;1.88;100.00
19748;BME280;10032;51.386;12.516;2022-12-10T10:12:51;99476.97;;;2.05;100.00
19748;BME280;10032;51.386;12.516;2022-12-10T10:15:24;99470.75;;;2.18;100.00
19748;BME280;10032;51.386;12.516;2022-12-10T10:17:52;99473.22;;;2.19;100.00
19748;BME280;10032;51.386;12.516;2022-12-10T10:20:19;99471.34;;;2.20;100.00
19748;BME280;10032;51.386;12.516;2022-12-10T10:22:47;99480.97;;;2.27;100.00
19748;BME280;10032;51.386;12.516;2022-12-10T10:25:17;99475.44;;;2.29;100.00
19748;BME280;10032;51.386;12.516;2022-12-10T10:27:44;99477.94;;;2.17;100.00
19748;BME280;10032;51.386;12.516;2022-12-10T10:30:17;99483.09;;;2.12;100.00
19748;BME280;10032;51.386;12.516;2022-12-10T10:32:49;99481.25;;;2.19;100.00
19748;BME280;10032;51.386;12.516;2022-12-10T10:35:22;99477.75;;;2.19;100.00
19748;BME280;10032;51.386;12.516;2022-12-10T10:37:48;99488.88;;;2.09;100.00
19748;BME280;10032;51.386;12.516;2022-12-10T10:40:27;99487.84;;;2.10;100.00
19748;BME280;10032;51.386;12.516;2022-12-10T10:42:55;99490.94;;;2.07;100.00
19748;BME280;10032;51.386;12.516;2022-12-10T10:45:47;99488.50;;;1.99;100.00
19748;BME280;10032;51.386;12.516;2022-12-10T10:48:17;99485.59;;;2.07;100.00
19748;BME280;10032;51.386;12.516;2022-12-10T10:50:47;99493.84;;;2.06;100.00
19748;BME280;10032;51.386;12.516;2022-12-10T10:56:14;99483.09;;;2.12;100.00
19748;BME280;10032;51.386;12.516;2022-12-10T11:01:52;99475.47;;;2.16;100.00
19748;BME280;10032;51.386;12.516;2022-12-10T11:04:37;99477.97;;;2.11;100.00
19748;BME280;10032;51.386;12.516;2022-12-10T11:07:42;99474.72;;;2.02;100.00
19748;BME280;10032;51.386;12.516;2022-12-10T11:10:19;99483.75;;;2.08;100.00
19748;BME280;10032;51.386;12.516;2022-12-10T11:13:19;99473.53;;;1.98;100.00
19748;BME280;10032;51.386;12.516;2022-12-10T11:15:55;99477.44;;;1.89;100.00
19748;BME280;10032;51.386;12.516;2022-12-10T11:23:27;99484.50;;;1.71;100.00
19748;BME280;10032;51.386;12.516;2022-12-10T11:25:59;99472.19;;;1.63;100.00
19748;BME280;10032;51.386;12.516;2022-12-10T11:34:58;99481.38;;;1.80;100.00
19748;BME280;10032;51.386;12.516;2022-12-10T11:40:19;99480.72;;;1.91;100.00
19748;BME280;10032;51.386;12.516;2022-12-10T11:45:28;99485.22;;;1.97;100.00
19748;BME280;10032;51.386;12.516;2022-12-10T11:50:43;99491.38;;;1.98;100.00
19748;BME280;10032;51.386;12.516;2022-12-10T11:56:13;99486.50;;;1.88;100.00
19748;BME280;10032;51.386;12.516;2022-12-10T12:15:34;99495.97;;;1.78;100.00
19748;BME280;10032;51.386;12.516;2022-12-10T12:20:43;99493.47;;;1.83;100.00
19748;BME280;10032;51.386;12.516;2022-12-10T12:23:15;99491.44;;;1.78;100.00
19748;BME280;10032;51.386;12.516;2022-12-10T12:25:50;99489.78;;;1.84;100.00
19748;BME280;10032;51.386;12.516;2022-12-10T12:31:05;99494.13;;;1.78;100.00
19748;BME280;10032;51.386;12.516;2022-12-10T12:33:54;99489.00;;;1.77;100.00
19748;BME280;10032;51.386;12.516;2022-12-10T12:36:27;99501.31;;;1.78;100.00
19748;BME280;10032;51.386;12.516;2022-12-10T12:42:21;99495.81;;;1.66;100.00
19748;BME280;10032;51.386;12.516;2022-12-10T12:45:10;99504.22;;;1.63;100.00
19748;BME280;10032;51.386;12.516;2022-12-10T12:53:16;99493.28;;;1.71;100.00
19748;BME280;10032;51.386;12.516;2022-12-10T12:55:50;99500.91;;;1.74;100.00
19748;BME280;10032;51.386;12.516;2022-12-10T12:59:00;99501.75;;;1.68;100.00
19748;BME280;10032;51.386;12.516;2022-12-10T13:03:57;99509.09;;;1.79;100.00
19748;BME280;10032;51.386;12.516;2022-12-10T13:06:43;99504.41;;;1.75;100.00
19748;BME280;10032;51.386;12.516;2022-12-10T13:09:29;99499.25;;;1.73;100.00
19748;BME280;10032;51.386;12.516;2022-12-10T13:14:53;99499.66;;;1.83;100.00
19748;BME280;10032;51.386;12.516;2022-12-10T13:17:35;99513.19;;;1.88;100.00
19748;BME280;10032;51.386;12.516;2022-12-10T13:25:40;99511.19;;;1.77;100.00
19748;BME280;10032;51.386;12.516;2022-12-10T13:39:21;99519.97;;;1.91;100.00
19748;BME280;10032;51.386;12.516;2022-12-10T13:45:00;99526.09;;;1.98;100.00
19748;BME280;10032;51.386;12.516;2022-12-10T13:47:48;99525.91;;;1.99;100.00
19748;BME280;10032;51.386;12.516;2022-12-10T13:50:25;99534.50;;;2.01;100.00
19748;BME280;10032;51.386;12.516;2022-12-10T13:58:53;99539.25;;;1.93;100.00
19748;BME280;10032;51.386;12.516;2022-12-10T14:01:44;99542.38;;;1.83;100.00
19748;BME280;10032;51.386;12.516;2022-12-10T14:07:12;99544.41;;;1.88;100.00
19748;BME280;10032;51.386;12.516;2022-12-10T14:09:48;99560.22;;;1.89;100.00
19748;BME280;10032;51.386;12.516;2022-12-10T14:12:20;99550.59;;;1.88;100.00
19748;BME280;10032;51.386;12.516;2022-12-10T14:14:57;99545.66;;;1.85;100.00
19748;BME280;10032;51.386;12.516;2022-12-10T14:17:31;99555.09;;;1.81;100.00
19748;BME280;10032;51.386;12.516;2022-12-10T14:19:57;99553.25;;;1.82;100.00
19748;BME280;10032;51.386;12.516;2022-12-10T14:22:48;99548.97;;;1.74;100.00
19748;BME280;10032;51.386;12.516;2022-12-10T14:25:21;99545.25;;;1.75;100.00
19748;BME280;10032;51.386;12.516;2022-12-10T14:27:50;99544.44;;;1.75;100.00
19748;BME280;10032;51.386;12.516;2022-12-10T14:30:24;99543.63;;;1.74;100.00
19748;BME280;10032;51.386;12.516;2022-12-10T14:32:53;99547.72;;;1.70;100.00
19748;BME280;10032;51.386;12.516;2022-12-10T14:35:23;99553.09;;;1.64;100.00
19748;BME280;10032;51.386;12.516;2022-12-10T14:37:50;99554.72;;;1.65;100.00
19748;BME280;10032;51.386;12.516;2022-12-10T14:40:35;99555.75;;;1.57;100.00
19748;BME280;10032;51.386;12.516;2022-12-10T14:43:05;99551.84;;;1.53;100.00
19748;BME280;10032;51.386;12.516;2022-12-10T14:45:42;99553.69;;;1.53;100.00
19748;BME280;10032;51.386;12.516;2022-12-10T14:48:13;99558.22;;;1.52;100.00
19748;BME280;10032;51.386;12.516;2022-12-10T14:50:41;99560.91;;;1.52;100.00
19748;BME280;10032;51.386;12.516;2022-12-10T14:53:14;99555.16;;;1.49;100.00
19748;BME280;10032;51.386;12.516;2022-12-10T14:55:40;99562.97;;;1.50;100.00
19748;BME280;10032;51.386;12.516;2022-12-10T14:58:11;99562.97;;;1.50;100.00